Time;durP1;ratioP1;P1;durP2;ratioP2;P2;SDS_P1;SDS_P2;PMS_P1;PMS_P2;Temp;Humidity;BMP_temperature;BMP_pressure;BME280_temperature;BME280_humidity;BME280_pressure;Samples;Min_cycle;Max_cycle;Signal;HPM_P1;HPM_P2
2022/06/25 00:01:20;;;;;;;7.18;1.80;;;;;;;15.67;100.00;98694.78;5155098;27;20054;-80
2022/06/25 00:03:47;;;;;;;2.83;1.85;;;;;;;15.50;100.00;98689.94;5154472;27;20516;-81
2022/06/25 00:06:13;;;;;;;6.72;1.75;;;;;;;15.28;100.00;98656.72;5052746;27;20058;-81
2022/06/25 00:08:40;;;;;;;6.65;1.90;;;;;;;15.43;100.00;98694.69;5029781;28;20049;-80
2022/06/25 00:11:07;;;;;;;10.02;1.90;;;;;;;15.38;100.00;98687.13;5030043;28;20057;-80
2022/06/25 00:13:34;;;;;;;12.05;4.55;;;;;;;15.36;100.00;98672.81;5029303;28;20528;-81
2022/06/25 00:16:01;;;;;;;4.63;1.80;;;;;;;15.52;100.00;98692.44;5028391;28;20057;-81
2022/06/25 00:18:28;;;;;;;8.85;1.98;;;;;;;15.36;100.00;98693.91;5029883;28;20049;-80
2022/06/25 00:20:54;;;;;;;7.88;2.38;;;;;;;15.26;100.00;98693.59;5030054;28;20053;-81
2022/06/25 00:23:21;;;;;;;5.45;1.60;;;;;;;15.25;100.00;98694.66;5029201;28;20439;-81
2022/06/25 00:25:47;;;;;;;4.72;1.90;;;;;;;15.21;100.00;98697.84;5030120;28;20413;-81
2022/06/25 00:28:14;;;;;;;9.45;2.05;;;;;;;15.20;100.00;98698.91;5029471;28;20058;-80
2022/06/25 00:30:41;;;;;;;9.45;1.95;;;;;;;15.25;100.00;98695.50;5029764;28;20072;-81
2022/06/25 00:33:08;;;;;;;10.40;1.90;;;;;;;14.97;100.00;98674.09;5029080;28;20049;-80
2022/06/25 00:35:34;;;;;;;9.10;1.85;;;;;;;15.04;100.00;98692.13;5029719;28;20045;-80
2022/06/25 00:38:01;;;;;;;4.05;1.42;;;;;;;15.15;100.00;98696.00;5029781;28;20060;-81
2022/06/25 00:40:27;;;;;;;9.77;1.67;;;;;;;15.14;100.00;98698.97;5029655;28;20065;-80
2022/06/25 00:42:54;;;;;;;8.27;1.88;;;;;;;15.12;100.00;98704.69;5028820;28;20465;-80
2022/06/25 00:45:20;;;;;;;6.43;1.67;;;;;;;15.06;100.00;98702.84;5029544;28;20056;-81
2022/06/25 00:47:49;;;;;;;6.20;1.60;;;;;;;15.12;100.00;98712.88;5029438;28;20060;-80
2022/06/25 00:50:15;;;;;;;11.27;1.70;;;;;;;15.09;100.00;98702.38;5029502;28;20050;-80
2022/06/25 00:52:43;;;;;;;14.02;1.95;;;;;;;14.97;100.00;98696.00;5028629;28;20045;-80
2022/06/25 00:55:12;;;;;;;12.20;2.22;;;;;;;15.08;100.00;98713.56;5029162;28;20451;-81
2022/06/25 00:57:40;;;;;;;9.68;2.30;;;;;;;14.99;100.00;98702.06;5029367;28;20046;-81
2022/06/25 01:00:10;;;;;;;10.18;1.70;;;;;;;14.93;100.00;98700.22;5029117;28;20438;-80
2022/06/25 01:02:37;;;;;;;3.47;1.45;;;;;;;14.96;100.00;98707.97;5028788;28;20053;-80
2022/06/25 01:05:07;;;;;;;7.50;2.15;;;;;;;14.85;100.00;98704.91;5066308;27;20053;-80
2022/06/25 01:07:35;;;;;;;8.55;1.73;;;;;;;14.85;100.00;98712.28;5153967;27;20050;-80
2022/06/25 01:10:03;;;;;;;3.85;1.48;;;;;;;14.77;100.00;98720.78;5153599;27;20043;-80
2022/06/25 01:12:29;;;;;;;2.30;1.50;;;;;;;14.55;100.00;98699.25;5153021;27;20042;-80
2022/06/25 01:15:03;;;;;;;9.23;1.55;;;;;;;14.57;100.00;98715.44;5151882;27;20050;-80
2022/06/25 01:17:29;;;;;;;6.78;2.15;;;;;;;14.50;100.00;98705.38;5153398;27;20156;-80
2022/06/25 01:19:56;;;;;;;12.48;2.00;;;;;;;14.46;100.00;98704.13;5153700;27;20054;-81
2022/06/25 01:22:25;;;;;;;3.90;1.50;;;;;;;14.61;100.00;98722.19;5152953;27;20756;-80
2022/06/25 01:24:51;;;;;;;2.70;1.55;;;;;;;14.54;100.00;98713.13;5153595;27;20047;-80
2022/06/25 01:27:18;;;;;;;4.43;1.52;;;;;;;14.50;100.00;98715.50;5153075;27;20038;-80
2022/06/25 01:29:45;;;;;;;2.55;1.52;;;;;;;14.51;100.00;98722.63;5153511;27;20042;-80
2022/06/25 01:32:11;;;;;;;3.58;1.50;;;;;;;14.39;100.00;98707.97;5152476;27;20134;-80
2022/06/25 01:34:38;;;;;;;9.10;1.65;;;;;;;14.53;100.00;98728.72;5153474;27;20062;-80
2022/06/25 01:37:05;;;;;;;6.72;1.88;;;;;;;14.41;100.00;98709.44;5153241;27;20093;-80
2022/06/25 01:39:33;;;;;;;4.82;1.42;;;;;;;14.41;100.00;98714.91;5153531;27;20058;-80
2022/06/25 01:42:00;;;;;;;6.78;1.98;;;;;;;14.47;100.00;98732.34;5152840;27;20057;-81
2022/06/25 01:44:28;;;;;;;5.93;1.70;;;;;;;14.40;100.00;98724.16;5152870;27;20054;-80
2022/06/25 01:46:55;;;;;;;3.67;1.70;;;;;;;14.33;100.00;98726.09;5153186;27;20073;-80
2022/06/25 01:49:22;;;;;;;3.08;1.50;;;;;;;14.29;100.00;98724.88;5152992;27;20054;-80
2022/06/25 01:51:48;;;;;;;7.85;1.98;;;;;;;14.25;100.00;98732.69;5153216;27;20477;-80
2022/06/25 01:54:15;;;;;;;3.70;1.90;;;;;;;14.19;100.00;98730.81;5152212;27;20050;-81
2022/06/25 01:56:42;;;;;;;3.20;1.85;;;;;;;14.27;100.00;98740.66;5153035;27;20490;-80
2022/06/25 01:59:09;;;;;;;3.15;1.60;;;;;;;14.23;100.00;98731.25;5152853;27;20047;-80
2022/06/25 02:01:36;;;;;;;5.10;1.92;;;;;;;14.21;100.00;98734.19;5152979;27;20042;-80
2022/06/25 02:04:02;;;;;;;3.17;1.58;;;;;;;14.17;100.00;98730.22;5152364;27;20068;-80
2022/06/25 02:06:29;;;;;;;8.05;2.15;;;;;;;14.23;100.00;98717.56;5045333;27;20049;-80
2022/06/25 02:08:55;;;;;;;5.65;1.88;;;;;;;14.10;100.00;98727.50;5028330;28;20053;-80
2022/06/25 02:11:24;;;;;;;4.88;2.55;;;;;;;14.21;100.00;98733.34;5028167;28;20046;-79
2022/06/25 02:13:52;;;;;;;4.65;1.58;;;;;;;14.19;100.00;98722.63;5027963;28;20050;-79
2022/06/25 02:16:20;;;;;;;4.43;1.92;;;;;;;14.19;100.00;98735.47;5028927;28;20056;-79
2022/06/25 02:18:46;;;;;;;6.22;2.00;;;;;;;14.10;100.00;98721.19;5031947;28;20060;-80
2022/06/25 02:21:13;;;;;;;5.63;2.00;;;;;;;14.18;100.00;98740.06;5031614;28;20382;-80
2022/06/25 02:23:40;;;;;;;2.10;1.48;;;;;;;14.14;100.00;98744.31;5030924;28;20049;-80
2022/06/25 02:26:07;;;;;;;2.63;1.80;;;;;;;14.03;100.00;98732.19;5031875;28;20057;-79
2022/06/25 02:28:33;;;;;;;1.70;1.50;;;;;;;14.11;100.00;98737.38;5031851;28;20061;-80
2022/06/25 02:31:01;;;;;;;7.65;1.77;;;;;;;14.11;100.00;98740.13;5031786;28;20049;-80
2022/06/25 02:33:28;;;;;;;2.83;1.50;;;;;;;14.02;100.00;98730.50;5031006;28;20055;-80
2022/06/25 02:35:54;;;;;;;6.60;2.05;;;;;;;14.07;100.00;98736.13;5031615;28;20054;-80
2022/06/25 02:38:21;;;;;;;11.57;1.75;;;;;;;13.96;100.00;98734.94;5031406;28;20474;-80
2022/06/25 02:40:47;;;;;;;5.28;1.90;;;;;;;13.94;100.00;98733.47;5031480;28;20041;-80
2022/06/25 02:43:14;;;;;;;4.72;1.83;;;;;;;13.98;100.00;98737.44;5030642;28;20057;-80
2022/06/25 02:45:40;;;;;;;3.30;1.98;;;;;;;14.00;100.00;98743.56;5031392;28;20050;-80
2022/06/25 02:48:09;;;;;;;4.90;2.00;;;;;;;13.95;100.00;98748.81;5031335;28;20048;-80
2022/06/25 02:50:36;;;;;;;4.80;2.15;;;;;;;13.92;100.00;98739.16;5031274;28;20057;-79
2022/06/25 02:53:03;;;;;;;2.35;1.88;;;;;;;14.07;100.00;98760.72;5030500;28;20057;-80
2022/06/25 03:00:57;;;;;;;4.63;1.80;;;;;;;13.96;100.00;98755.97;5031329;28;20397;-80
2022/06/25 03:03:25;;;;;;;5.88;2.00;;;;;;;13.83;100.00;98743.19;5030511;28;20050;-80
2022/06/25 03:05:52;;;;;;;3.90;2.25;;;;;;;13.81;100.00;98748.88;5102488;27;20050;-80
2022/06/25 03:08:18;;;;;;;8.57;1.92;;;;;;;13.72;100.00;98743.88;5155954;27;20395;-80
2022/06/25 03:10:45;;;;;;;2.00;1.75;;;;;;;13.65;100.00;98734.84;5156332;27;20047;-79
2022/06/25 03:13:11;;;;;;;2.67;1.73;;;;;;;13.72;100.00;98752.91;5155062;27;20046;-80
2022/06/25 03:15:38;;;;;;;3.60;1.60;;;;;;;13.58;100.00;98738.44;5154972;27;20053;-79
2022/06/25 03:18:05;;;;;;;2.80;1.70;;;;;;;13.77;100.00;98753.06;5155846;27;20042;-79
2022/06/25 03:20:32;;;;;;;4.43;1.90;;;;;;;13.74;100.00;98739.84;5156032;27;20050;-79
2022/06/25 03:22:59;;;;;;;5.63;1.50;;;;;;;13.73;100.00;98745.53;5154941;27;20050;-79
2022/06/25 03:25:26;;;;;;;3.65;1.70;;;;;;;13.79;100.00;98761.09;5155505;27;20413;-79
2022/06/25 03:27:52;;;;;;;9.68;1.77;;;;;;;13.85;100.00;98756.63;5155412;27;20038;-80
2022/06/25 03:30:19;;;;;;;9.85;2.05;;;;;;;13.56;100.00;98736.97;5155785;27;20431;-80
2022/06/25 03:32:46;;;;;;;4.93;1.80;;;;;;;13.67;100.00;98757.31;5155319;27;20054;-79
2022/06/25 03:35:12;;;;;;;4.40;1.70;;;;;;;13.75;100.00;98751.63;5155388;27;20042;-79
2022/06/25 03:37:40;;;;;;;4.03;1.83;;;;;;;13.73;100.00;98761.91;5155578;27;20054;-80
2022/06/25 03:40:07;;;;;;;5.47;1.73;;;;;;;13.57;100.00;98746.88;5155727;27;20474;-79
2022/06/25 03:42:34;;;;;;;11.60;2.05;;;;;;;13.67;100.00;98766.38;5154887;27;20200;-79
2022/06/25 03:45:00;;;;;;;3.42;1.83;;;;;;;13.73;100.00;98765.50;5155483;27;20047;-79
2022/06/25 03:47:27;;;;;;;6.65;2.10;;;;;;;13.78;100.00;98762.97;5155393;27;20043;-79
2022/06/25 03:49:53;;;;;;;2.08;1.88;;;;;;;13.71;100.00;98766.78;5155581;27;20042;-79
2022/06/25 03:52:20;;;;;;;1.95;1.77;;;;;;;13.75;100.00;98759.84;5154981;27;20085;-79
2022/06/25 03:54:48;;;;;;;2.33;2.00;;;;;;;13.77;100.00;98765.91;5155282;27;20046;-79
2022/06/25 03:57:15;;;;;;;6.75;2.13;;;;;;;13.65;100.00;98756.72;5155095;27;20043;-79
2022/06/25 03:59:41;;;;;;;1.70;1.60;;;;;;;13.76;100.00;98756.88;5155210;27;20050;-79
2022/06/25 04:02:08;;;;;;;2.42;1.90;;;;;;;13.81;100.00;98758.97;5154492;27;20051;-79
2022/06/25 04:04:34;;;;;;;3.13;1.80;;;;;;;13.94;100.00;98763.53;5154742;27;20058;-79
2022/06/25 04:07:01;;;;;;;4.10;1.85;;;;;;;13.86;100.00;98761.03;5030245;28;20053;-79
2022/06/25 04:09:27;;;;;;;4.35;1.70;;;;;;;13.88;100.00;98764.38;5029904;28;20049;-79
2022/06/25 04:11:56;;;;;;;6.35;1.38;;;;;;;14.01;100.00;98768.97;5030466;28;20054;-80
2022/06/25 04:14:23;;;;;;;5.07;1.60;;;;;;;14.05;100.00;98776.53;5028438;28;20136;-79
2022/06/25 04:16:49;;;;;;;5.05;1.75;;;;;;;14.07;100.00;98765.38;5030009;28;20409;-80
2022/06/25 04:19:16;;;;;;;3.90;1.88;;;;;;;14.08;100.00;98781.56;5029959;28;20046;-78
2022/06/25 04:21:47;;;;;;;2.05;1.85;;;;;;;14.06;100.00;98770.00;5029916;28;20041;-78
2022/06/25 04:24:15;;;;;;;4.85;1.77;;;;;;;14.23;100.00;98783.19;5029590;28;20046;-78
2022/06/25 04:26:41;;;;;;;7.10;2.15;;;;;;;14.31;100.00;98789.22;5029792;28;20053;-78
2022/06/25 04:29:08;;;;;;;3.42;1.85;;;;;;;14.08;100.00;98751.50;5029662;28;20046;-78
2022/06/25 04:31:36;;;;;;;8.95;1.80;;;;;;;14.32;100.00;98790.06;5029774;28;20053;-78
2022/06/25 04:34:03;;;;;;;3.00;2.03;;;;;;;14.24;100.00;98776.63;5028928;28;20072;-78
2022/06/25 04:36:30;;;;;;;4.63;1.88;;;;;;;14.42;100.00;98795.91;5029446;28;20046;-79
2022/06/25 04:38:57;;;;;;;6.28;1.75;;;;;;;14.49;100.00;98783.00;5028910;28;20053;-78
2022/06/25 04:41:23;;;;;;;3.95;1.70;;;;;;;14.54;100.00;98774.16;5029686;28;20049;-79
2022/06/25 04:43:50;;;;;;;1.80;1.70;;;;;;;14.67;100.00;98792.41;5028804;28;20057;-78
2022/06/25 04:46:18;;;;;;;1.67;1.42;;;;;;;14.63;100.00;98786.56;5029412;28;20064;-78
2022/06/25 04:48:45;;;;;;;3.42;1.75;;;;;;;14.59;100.00;98785.28;5029375;28;20485;-78
2022/06/25 04:51:11;;;;;;;4.68;1.88;;;;;;;14.86;100.00;98810.59;5029529;28;20049;-78
2022/06/25 04:53:55;;;;;;;2.42;1.23;;;;;;;14.92;100.00;98797.94;5028834;28;20056;-78
2022/06/25 04:56:22;;;;;;;1.83;1.70;;;;;;;14.94;100.00;98795.78;5029668;28;20049;-78
2022/06/25 04:58:48;;;;;;;5.55;2.35;;;;;;;15.22;100.00;98798.09;5029411;28;20503;-79
2022/06/25 05:01:15;;;;;;;4.78;1.85;;;;;;;15.94;100.00;98824.16;5029373;28;20447;-78
2022/06/25 05:03:43;;;;;;;4.88;1.15;;;;;;;16.65;100.00;98824.56;5028715;28;20492;-79
2022/06/25 05:06:09;;;;;;;2.38;1.20;;;;;;;17.38;100.00;98830.84;5107099;27;20061;-79
2022/06/25 05:08:36;;;;;;;1.58;1.20;;;;;;;17.55;100.00;98811.72;5153991;27;20050;-79
2022/06/25 05:11:03;;;;;;;4.53;1.30;;;;;;;18.13;100.00;98828.44;5153589;27;20053;-78
2022/06/25 05:13:29;;;;;;;2.70;1.02;;;;;;;18.22;100.00;98818.72;5153342;27;20055;-79
2022/06/25 05:15:56;;;;;;;5.57;1.20;;;;;;;18.58;100.00;98833.22;5152540;27;20047;-79
2022/06/25 05:18:22;;;;;;;2.50;1.00;;;;;;;18.52;100.00;98826.75;5153623;27;20046;-78
2022/06/25 05:20:50;;;;;;;3.17;1.23;;;;;;;18.64;100.00;98803.84;5153772;27;20050;-80
2022/06/25 05:23:17;;;;;;;1.58;0.82;;;;;;;18.91;100.00;98824.22;5152758;27;20077;-78
2022/06/25 05:25:44;;;;;;;2.80;0.90;;;;;;;19.22;100.00;98832.19;5153667;27;20046;-78
2022/06/25 05:28:10;;;;;;;2.90;0.88;;;;;;;19.66;99.79;98834.25;5153167;27;20069;-78
2022/06/25 05:30:37;;;;;;;7.28;1.27;;;;;;;19.51;100.00;98821.06;5153682;27;20047;-78
2022/06/25 05:33:04;;;;;;;3.28;1.02;;;;;;;19.93;99.70;98835.25;5152461;27;20049;-79
2022/06/25 05:35:31;;;;;;;1.98;1.33;;;;;;;19.93;96.48;98834.41;5153499;27;20062;-79
2022/06/25 05:37:58;;;;;;;1.40;1.00;;;;;;;20.33;96.98;98827.78;5153259;27;20047;-78
2022/06/25 05:40:25;;;;;;;3.15;0.60;;;;;;;20.46;89.78;98837.56;5153255;27;20046;-79
2022/06/25 05:42:51;;;;;;;0.93;0.80;;;;;;;20.26;91.67;98824.34;5152622;27;20051;-79
2022/06/25 05:45:18;;;;;;;6.65;0.95;;;;;;;19.48;98.62;98844.47;5153288;27;20054;-79
2022/06/25 05:47:44;;;;;;;4.68;0.95;;;;;;;18.77;100.00;98819.25;5153333;27;20051;-79
2022/06/25 05:50:11;;;;;;;1.48;1.10;;;;;;;18.71;100.00;98835.66;5152280;27;20052;-79
2022/06/25 05:52:38;;;;;;;1.17;0.90;;;;;;;18.58;100.00;98842.28;5152582;27;20080;-79
2022/06/25 05:55:06;;;;;;;5.20;1.13;;;;;;;18.42;100.00;98839.50;5153066;27;20046;-79
2022/06/25 05:57:33;;;;;;;4.95;1.15;;;;;;;18.10;100.00;98842.69;5153444;27;20076;-78
2022/06/25 06:00:00;;;;;;;4.72;1.00;;;;;;;18.60;100.00;98833.78;5153340;27;20047;-78
2022/06/25 06:02:27;;;;;;;4.10;0.90;;;;;;;18.61;100.00;98829.97;5151963;27;20053;-79
2022/06/25 06:04:54;;;;;;;2.22;1.13;;;;;;;19.30;100.00;98851.06;5144697;27;20507;-80
2022/06/25 06:07:20;;;;;;;2.60;0.90;;;;;;;19.59;100.00;98821.47;5028218;28;20054;-80
2022/06/25 06:09:47;;;;;;;7.38;1.20;;;;;;;19.92;100.00;98863.09;5028322;28;20508;-79
2022/06/25 06:12:15;;;;;;;4.78;0.98;;;;;;;19.71;100.00;98857.25;5027470;28;20539;-80
2022/06/25 06:14:41;;;;;;;5.57;1.77;;;;;;;20.12;100.00;98848.75;5027584;28;20076;-80
2022/06/25 06:17:08;;;;;;;3.65;1.13;;;;;;;20.58;96.67;98859.53;5028050;28;20056;-79
2022/06/25 06:19:35;;;;;;;3.58;1.10;;;;;;;20.54;93.30;98848.19;5028531;28;20059;-79
2022/06/25 06:22:01;;;;;;;3.63;1.10;;;;;;;20.59;91.86;98856.50;5027960;28;20505;-79
2022/06/25 06:24:28;;;;;;;1.70;0.77;;;;;;;20.59;86.93;98847.41;5027833;28;20496;-79
2022/06/25 06:26:55;;;;;;;3.78;1.00;;;;;;;21.12;84.67;98856.84;5028218;28;20045;-79
2022/06/25 06:29:23;;;;;;;4.05;1.10;;;;;;;21.06;84.21;98871.69;5028208;28;20053;-80
2022/06/25 06:31:49;;;;;;;1.88;0.88;;;;;;;21.06;84.97;98876.38;5028315;28;20081;-79
2022/06/25 06:34:16;;;;;;;2.60;1.17;;;;;;;21.17;84.00;98856.06;5027391;28;20064;-80
2022/06/25 06:36:43;;;;;;;1.67;1.05;;;;;;;21.25;83.06;98863.03;5027982;28;20049;-80
2022/06/25 06:39:10;;;;;;;6.68;1.48;;;;;;;21.29;83.75;98862.25;5027915;28;20053;-80
2022/06/25 06:41:36;;;;;;;4.72;0.90;;;;;;;21.50;80.93;98868.81;5028112;28;20045;-80
2022/06/25 06:44:03;;;;;;;2.97;0.80;;;;;;;21.54;80.65;98872.72;5027232;28;20046;-80
2022/06/25 06:46:31;;;;;;;2.08;0.98;;;;;;;21.61;78.56;98866.13;5027690;28;20057;-80
2022/06/25 06:48:57;;;;;;;3.80;1.02;;;;;;;21.89;81.58;98854.72;5028022;28;20054;-80
2022/06/25 06:51:24;;;;;;;3.00;0.88;;;;;;;22.26;75.85;98873.19;5028223;28;20060;-80
2022/06/25 06:53:50;;;;;;;4.38;0.70;;;;;;;22.12;75.60;98855.41;5027208;28;20053;-80
2022/06/25 06:56:17;;;;;;;1.27;0.82;;;;;;;22.13;73.96;98862.63;5027843;28;20053;-80
2022/06/25 06:58:43;;;;;;;0.73;0.70;;;;;;;22.34;75.04;98871.03;5027833;28;20413;-80
2022/06/25 07:01:10;;;;;;;1.80;0.93;;;;;;;22.45;73.10;98862.50;5028048;28;20057;-80
2022/06/25 07:03:38;;;;;;;1.60;0.70;;;;;;;22.16;74.39;98848.25;5030652;28;20057;-80
2022/06/25 07:06:04;;;;;;;1.83;0.80;;;;;;;22.76;73.27;98870.94;5096929;27;20043;-80
2022/06/25 07:08:30;;;;;;;6.57;1.08;;;;;;;23.28;69.11;98863.59;5156247;27;20043;-80
2022/06/25 07:10:57;;;;;;;1.00;0.60;;;;;;;23.39;69.48;98867.19;5156127;27;20051;-80
2022/06/25 07:13:23;;;;;;;1.08;0.85;;;;;;;23.50;68.17;98860.56;5155347;27;20043;-80
2022/06/25 07:15:50;;;;;;;1.08;0.65;;;;;;;23.40;69.66;98859.72;5154905;27;20046;-80
2022/06/25 07:18:16;;;;;;;1.13;0.70;;;;;;;23.17;67.32;98867.47;5156160;27;20038;-80
2022/06/25 07:20:44;;;;;;;2.45;0.85;;;;;;;23.06;67.19;98844.38;5156018;27;20051;-80
2022/06/25 07:23:11;;;;;;;2.22;1.05;;;;;;;23.39;72.21;98847.78;5155160;27;20050;-80
2022/06/25 07:25:37;;;;;;;2.30;0.70;;;;;;;23.84;70.88;98859.13;5155985;27;20433;-80
2022/06/25 07:28:04;;;;;;;5.45;0.80;;;;;;;23.54;72.93;98848.91;5155834;27;20055;-80
2022/06/25 07:30:31;;;;;;;1.70;0.80;;;;;;;23.84;65.90;98848.03;5155586;27;20042;-80
2022/06/25 07:32:57;;;;;;;2.88;0.75;;;;;;;24.20;67.25;98836.88;5154963;27;20055;-80
2022/06/25 07:35:24;;;;;;;0.90;0.60;;;;;;;23.97;66.84;98852.22;5155702;27;20081;-80
2022/06/25 07:37:51;;;;;;;2.78;0.80;;;;;;;24.32;63.68;98854.03;5155618;27;20043;-80
2022/06/25 07:40:21;;;;;;;2.40;0.77;;;;;;;23.80;66.03;98855.25;5155348;27;20047;-80
2022/06/25 07:42:51;;;;;;;2.33;0.68;;;;;;;24.02;66.83;98841.09;5155164;27;20432;-80
2022/06/25 07:45:18;;;;;;;4.43;0.70;;;;;;;23.95;67.20;98851.66;5155529;27;20050;-80
2022/06/25 07:47:44;;;;;;;1.83;0.60;;;;;;;23.45;64.39;98829.19;5155554;27;20410;-80
2022/06/25 07:52:56;;;;;;;2.15;1.00;;;;;;;23.92;67.26;98841.97;5154991;27;20122;-80
2022/06/25 07:55:23;;;;;;;2.53;0.70;;;;;;;23.72;64.30;98828.06;5155500;27;20398;-80
2022/06/25 07:57:50;;;;;;;1.52;0.88;;;;;;;23.50;62.78;98821.72;5155254;27;20478;-80
2022/06/25 08:00:17;;;;;;;4.40;1.13;;;;;;;23.80;65.61;98820.03;5155074;27;20143;-80
2022/06/25 08:02:43;;;;;;;1.55;0.80;;;;;;;23.72;60.67;98831.66;5154806;27;20049;-79
2022/06/25 08:05:10;;;;;;;1.75;1.00;;;;;;;24.05;63.54;98834.16;5140473;27;20482;-80
2022/06/25 08:07:37;;;;;;;4.78;0.80;;;;;;;24.07;59.13;98835.50;5030210;28;20049;-80
2022/06/25 08:10:05;;;;;;;4.28;0.80;;;;;;;23.81;62.18;98829.16;5030327;28;20128;-80
2022/06/25 08:12:32;;;;;;;4.18;0.90;;;;;;;23.94;60.09;98836.94;5028923;28;20129;-80
2022/06/25 08:14:59;;;;;;;2.63;0.77;;;;;;;23.60;61.67;98836.69;5028706;28;20053;-80
2022/06/25 08:17:25;;;;;;;1.48;0.70;;;;;;;23.25;62.55;98811.44;5030069;28;20060;-80
2022/06/25 08:19:52;;;;;;;2.95;0.68;;;;;;;23.35;64.82;98827.28;5030191;28;20049;-80
2022/06/25 08:22:18;;;;;;;4.50;0.80;;;;;;;23.35;64.35;98804.25;5029171;28;20390;-80
2022/06/25 08:24:45;;;;;;;1.50;0.70;;;;;;;23.62;65.98;98817.81;5029858;28;20443;-79
2022/06/25 08:27:13;;;;;;;3.63;1.02;;;;;;;23.28;62.04;98818.41;5029681;28;20050;-79
2022/06/25 08:29:39;;;;;;;2.47;0.88;;;;;;;23.30;62.04;98813.41;5029864;28;20048;-80
2022/06/25 08:32:06;;;;;;;2.17;0.88;;;;;;;23.87;60.94;98814.19;5029131;28;20046;-80
2022/06/25 08:34:33;;;;;;;1.75;0.90;;;;;;;24.11;60.48;98830.25;5029899;28;20049;-79
2022/06/25 08:37:00;;;;;;;2.60;0.82;;;;;;;23.85;60.29;98810.88;5029612;28;20045;-79
2022/06/25 08:39:26;;;;;;;2.05;0.80;;;;;;;23.97;61.89;98814.16;5029931;28;20081;-78
2022/06/25 08:41:53;;;;;;;6.50;0.90;;;;;;;23.90;58.70;98816.41;5029799;28;20045;-79
2022/06/25 08:44:21;;;;;;;8.43;0.98;;;;;;;23.64;63.76;98796.19;5028936;28;20082;-79
2022/06/25 08:46:48;;;;;;;4.03;0.88;;;;;;;23.83;62.39;98800.03;5029515;28;20052;-79
2022/06/25 08:49:17;;;;;;;0.73;0.70;;;;;;;24.17;59.32;98818.00;5029737;28;20045;-79
2022/06/25 08:51:45;;;;;;;6.50;1.00;;;;;;;24.34;61.83;98810.16;5029410;28;20053;-79
2022/06/25 08:54:12;;;;;;;1.05;0.65;;;;;;;24.46;64.39;98803.44;5028871;28;20120;-79
2022/06/25 08:56:39;;;;;;;2.05;0.93;;;;;;;24.76;61.92;98809.97;5029218;28;20046;-79
2022/06/25 08:59:06;;;;;;;0.60;0.60;;;;;;;25.13;60.14;98803.03;5029316;28;20389;-79
2022/06/25 09:01:34;;;;;;;1.95;0.90;;;;;;;25.03;60.57;98795.63;5029205;28;20060;-79
2022/06/25 09:04:01;;;;;;;3.15;1.13;;;;;;;24.98;62.75;98798.44;5028898;28;20073;-79
2022/06/25 09:06:27;;;;;;;1.92;0.77;;;;;;;25.17;57.43;98798.56;5106077;27;20050;-79
2022/06/25 09:09:12;;;;;;;2.97;0.80;;;;;;;25.41;56.79;98799.53;5153811;27;20418;-79
2022/06/25 09:11:53;;;;;;;2.00;0.90;;;;;;;25.40;56.15;98777.56;5153624;27;20050;-78
2022/06/25 09:14:23;;;;;;;4.70;0.82;;;;;;;25.34;55.73;98778.72;5152002;27;20050;-78
2022/06/25 09:16:54;;;;;;;;;;;;;;;25.35;54.81;98791.50;5154130;27;20042;-78
2022/06/25 09:19:32;;;;;;;3.13;1.02;;;;;;;25.16;53.20;98789.41;5153879;27;20362;-78
2022/06/25 09:21:59;;;;;;;2.17;0.80;;;;;;;25.24;53.15;98788.75;5153383;27;20406;-78
2022/06/25 09:24:39;;;;;;;2.65;0.90;;;;;;;25.11;53.75;98788.59;5152988;27;20054;-78
2022/06/25 09:27:05;;;;;;;;;;;;;;;25.03;57.86;98787.28;5153803;27;20046;-78
2022/06/25 09:29:37;;;;;;;5.45;1.10;;;;;;;25.31;55.76;98794.03;5153552;27;19919;-78
2022/06/25 09:32:06;;;;;;;4.30;0.80;;;;;;;25.40;51.60;98792.28;5152873;27;20054;-78
2022/06/25 09:34:34;;;;;;;3.60;1.05;;;;;;;25.50;51.14;98782.19;5153882;27;20038;-78
2022/06/25 09:37:19;;;;;;;1.25;0.80;;;;;;;25.73;50.95;98774.97;5153463;27;20047;-78
2022/06/25 09:39:46;;;;;;;2.40;1.05;;;;;;;25.81;52.51;98795.81;5153387;27;20053;-78
2022/06/25 09:42:24;;;;;;;2.53;0.98;;;;;;;25.64;52.13;98773.97;5152529;27;20050;-78
2022/06/25 09:45:00;;;;;;;2.05;0.82;;;;;;;25.66;49.44;98767.00;5153171;27;20061;-78
2022/06/25 09:47:28;;;;;;;2.35;1.13;;;;;;;25.90;47.45;98788.47;5153496;27;20494;-78
2022/06/25 09:50:04;;;;;;;1.35;0.80;;;;;;;25.02;49.22;98786.44;5153000;27;20046;-78
2022/06/25 09:52:31;;;;;;;1.17;0.70;;;;;;;24.82;49.19;98773.50;5152329;27;20486;-78
2022/06/25 09:54:58;;;;;;;5.78;0.80;;;;;;;24.87;49.62;98783.75;5152812;27;20417;-77
2022/06/25 09:57:26;;;;;;;3.72;1.02;;;;;;;24.83;48.68;98782.69;5153087;27;20051;-77
2022/06/25 09:59:56;;;;;;;5.32;1.08;;;;;;;25.14;51.16;98766.63;5153257;27;20043;-78
2022/06/25 10:02:26;;;;;;;4.53;1.00;;;;;;;25.40;49.44;98758.91;5152141;27;20490;-78
2022/06/25 10:04:58;;;;;;;2.05;0.70;;;;;;;26.04;47.90;98758.78;5153240;27;20050;-78
2022/06/25 10:07:59;;;;;;;2.05;1.00;;;;;;;25.97;46.06;98761.91;5031084;27;20052;-78
2022/06/25 10:10:19;;;;;;;2.15;1.15;;;;;;;26.16;53.16;98763.13;5028083;28;20046;-78
2022/06/25 10:12:46;;;;;;;3.65;1.00;;;;;;;26.42;50.85;98770.03;5027828;28;20053;-78
2022/06/25 10:15:16;;;;;;;3.33;0.85;;;;;;;26.10;49.71;98765.94;5026865;28;20482;-77
2022/06/25 10:17:44;;;;;;;4.78;0.82;;;;;;;25.92;50.27;98769.50;5028536;28;20078;-77
2022/06/25 10:20:12;;;;;;;3.17;1.13;;;;;;;25.11;50.06;98766.34;5028038;28;20499;-77
2022/06/25 10:22:40;;;;;;;3.15;1.00;;;;;;;24.76;55.48;98759.94;5027690;28;20081;-77
2022/06/25 10:25:10;;;;;;;1.95;1.00;;;;;;;24.60;54.28;98761.97;5028104;28;20049;-77
2022/06/25 10:27:38;;;;;;;;;;;;;;;24.38;55.86;98768.75;5028780;28;20050;-77
2022/06/25 10:30:05;;;;;;;2.28;0.90;;;;;;;24.68;51.99;98758.63;5027788;28;20387;-77
2022/06/25 10:32:34;;;;;;;3.42;0.90;;;;;;;24.63;48.39;98744.72;5026832;28;20420;-78
2022/06/25 10:35:02;;;;;;;2.58;0.77;;;;;;;25.13;51.49;98758.53;5028053;28;20084;-77
2022/06/25 10:38:00;;;;;;;3.38;0.93;;;;;;;25.59;47.51;98742.31;5030095;28;20512;-77
2022/06/25 10:40:27;;;;;;;2.55;1.00;;;;;;;26.13;47.45;98743.06;5031762;28;20054;-77
2022/06/25 10:42:58;;;;;;;4.38;1.10;;;;;;;26.60;49.22;98726.56;5030720;28;20481;-77
2022/06/25 10:45:52;;;;;;;3.83;0.90;;;;;;;26.78;43.49;98724.09;5031462;28;20062;-77
2022/06/25 10:48:22;;;;;;;4.00;1.15;;;;;;;27.01;43.05;98737.09;5031384;28;20052;-78
2022/06/25 10:50:49;;;;;;;;;;;;;;;26.98;45.58;98742.47;5031606;28;20068;-78
2022/06/25 10:53:18;;;;;;;3.17;1.10;;;;;;;27.08;44.83;98731.13;5030630;28;20368;-78
2022/06/25 10:56:15;;;;;;;2.03;0.95;;;;;;;27.12;46.56;98721.03;5031262;28;20420;-77
2022/06/25 10:58:43;;;;;;;3.85;0.95;;;;;;;26.79;45.21;98718.22;5031363;28;20450;-77
2022/06/25 11:01:20;;;;;;;2.53;0.82;;;;;;;26.74;46.60;98720.25;5031080;28;20049;-77
2022/06/25 11:03:47;;;;;;;2.55;0.88;;;;;;;26.66;44.63;98714.25;5030655;28;20052;-76
2022/06/25 11:06:21;;;;;;;2.60;0.70;;;;;;;26.63;43.13;98719.53;5087619;27;20051;-77
2022/06/25 11:08:50;;;;;;;2.90;1.00;;;;;;;26.29;43.24;98720.59;5156247;27;20050;-77
2022/06/25 11:11:31;;;;;;;3.57;0.93;;;;;;;26.02;45.71;98707.31;5156009;27;20039;-77
2022/06/25 11:13:59;;;;;;;2.70;1.00;;;;;;;26.38;47.46;98682.56;5155413;27;20288;-77
2022/06/25 11:16:27;;;;;;;7.35;2.88;;;;;;;26.83;48.01;98687.78;5154993;27;20049;-77
2022/06/25 11:18:55;;;;;;;4.15;0.90;;;;;;;27.47;47.36;98701.19;5156062;27;20085;-77
2022/06/25 11:21:26;;;;;;;3.63;0.82;;;;;;;27.06;44.21;98696.31;5155931;27;20046;-77
2022/06/25 11:24:05;;;;;;;2.92;0.98;;;;;;;27.27;43.93;98689.22;5155120;27;20069;-77
2022/06/25 11:29:20;;;;;;;2.33;0.90;;;;;;;27.32;44.42;98685.50;5155851;27;20100;-77
2022/06/25 11:31:47;;;;;;;1.83;1.20;;;;;;;27.99;46.29;98696.25;5155601;27;20053;-77
2022/06/25 11:34:18;;;;;;;1.48;0.90;;;;;;;27.95;41.52;98706.38;5154759;27;20514;-78
2022/06/25 11:36:45;;;;;;;4.05;1.40;;;;;;;27.06;44.21;98699.94;5155802;27;20042;-78
2022/06/25 11:39:15;;;;;;;1.88;1.05;;;;;;;27.39;45.19;98693.53;5155654;27;20043;-78
2022/06/25 11:41:41;;;;;;;2.67;0.88;;;;;;;27.78;44.10;98689.44;5155778;27;20103;-77
2022/06/25 11:44:09;;;;;;;3.63;1.08;;;;;;;28.20;45.99;98681.84;5154812;27;20616;-77